x

North Hecate Strait (46183) Wave Buoy

2:00am - Thu 24th Aug 2017 All times are PDT. -7 hours from GMT.

  • Sig Wave height 3.0ft
  • Peak Period 5s
  • Wind
    7mph, 9mph gusts
  • Sea Temp 54°f
  • Air Temp 55°f
  • Sea Pressure 1011.3mb
  • North Hecate Strait
  • North Hecate Strait

More Historic Weather Station data

Upgrade to MSW Pro to gain access to the past 30 days of data for over 8000 Wavebouys and Weather Stations around the globe.

Join

Comparision Forecast

View Surf forecast
   
Thu 08/24 2:00am 3ft 5s 7 9 mph 1011.3mb 54f 55f
1:00am 3ft 6s 7 9 mph 1011.2mb 54f 55f
12:00am 3ft 5s 7 9 mph 1011.3mb 53f 55f
Wed 08/23 11:00pm 3ft 5s 7 9 mph 1011.4mb 54f 55f
10:00pm 3.5ft 5s 9 11 mph 1011.4mb 54f 55f
9:00pm 4ft 6s 13 16 mph 1011.3mb 54f 55f
8:00pm 4.5ft 6s 13 16 mph 1011mb 54f 56f
7:00pm 4.5ft 6s 18 22 mph 1010.8mb 55f 56f
6:00pm 6ft 6s 18 22 mph 1011.3mb 55f 56f
5:00pm 6ft 6s 22 27 mph 1011.1mb 55f 56f
4:00pm 5.5ft 6s 25 29 mph 1011mb 56f 56f
3:00pm 6ft 5s 25 31 mph 1011.4mb 55f 55f
2:00pm 5ft 5s 29 36 mph 1011.5mb 55f 55f
1:00pm 5.5ft 5s 25 31 mph 1011.8mb 55f 56f
12:00pm 6ft 5s 27 34 mph 1012.2mb 55f 56f
11:00am 5.5ft 5s 27 31 mph 1012.4mb 55f 56f
10:00am 4.5ft 5s 25 29 mph 1012.8mb 55f 56f
9:00am 4ft 6s 22 29 mph 1012.8mb 55f 56f
8:00am 4.5ft 5s 25 29 mph 1012.7mb 55f 56f
7:00am 3.5ft 5s 22 27 mph 1013mb 55f 56f
6:00am 4ft 5s 18 22 mph 1013.3mb 55f 56f
5:00am 3.5ft 5s 22 25 mph 1012.9mb 55f 57f
4:00am 3ft 5s 18 22 mph 1013mb 56f 56f
3:00am 3ft 4s 18 22 mph 1013.4mb 56f 56f
2:00am 2.5ft 5s 18 22 mph 1013.4mb 56f 56f
1:00am 2.5ft 5s 20 22 mph 1013.3mb 55f 56f
12:00am 2ft 5s 11 13 mph 1013.4mb 55f 56f
Tue 08/22 11:00pm 2ft 5s 9 11 mph 1013.8mb 55f 57f
10:00pm 2ft 5s 7 9 mph 1013.8mb 55f 57f
9:00pm 2.5ft 5s 9 9 mph 1013.3mb 55f 57f
8:00pm 2.5ft 6s 9 11 mph 1013.5mb 55f 57f
7:00pm 2.5ft 6s 13 16 mph 1013.1mb 56f 58f
6:00pm 2.5ft 6s 2 2 mph 1013mb 56f 58f
5:00pm 3.5ft 6s 2 4 mph 1012.1mb 57f 58f
4:00pm 4ft 5s 2 9 mph 1011.6mb 56f 57f
3:00pm 4.5ft 6s 2 4 mph 1011.5mb 56f 57f
2:00pm 4.5ft 6s 9 13 mph 1011mb 56f 57f
1:00pm 5ft 6s 20 22 mph 1010.6mb 56f 57f
12:00pm 5ft 5s 22 25 mph 1010.6mb 55f 58f
11:00am 5ft 6s 22 29 mph 1010.6mb 55f 58f
10:00am 6ft 6s 25 29 mph 1010.6mb 55f 58f
9:00am 6ft 6s 27 31 mph 1010.7mb 55f 58f
8:00am 5.5ft 6s 25 29 mph 1011mb 55f 57f
7:00am 5.5ft 6s 27 31 mph 1011mb 55f 57f
6:00am 5.5ft 6s 25 31 mph 1011.7mb 55f 57f
5:00am 5.5ft 6s 25 29 mph 1011.6mb 56f 57f
4:00am 5.5ft 6s 25 31 mph 1011.8mb 56f 57f
3:00am 5ft 5s 25 31 mph 1012.3mb 56f 57f
2:00am 5ft 5s 25 31 mph 1012.7mb 57f 57f
1:00am 5.5ft 6s 27 34 mph 1013.3mb 56f 57f
12:00am 5ft 5s 27 31 mph 1014mb 56f 57f
Mon 08/21 11:00pm 6ft 6s 27 34 mph 1014.4mb 56f 57f
10:00pm 5.5ft 6s 25 31 mph 1015.1mb 56f 57f
9:00pm 5.5ft 5s 25 29 mph 1015.3mb 56f 58f
8:00pm 5.5ft 6s 27 31 mph 1015.4mb 56f 58f
7:00pm 5ft 6s 25 31 mph 1015.7mb 56f 58f
6:00pm 4ft 5s 22 27 mph 1015.8mb 57f 58f
5:00pm 4.5ft 5s 22 27 mph 1015.8mb 57f 58f
4:00pm 4.5ft 6s 25 31 mph 1015.9mb 57f 57f
3:00pm 4ft 5s 22 27 mph 1016.1mb 57f 58f
2:00pm 4ft 5s 22 25 mph 1016.2mb 57f 58f
1:00pm 4.5ft 5s 25 29 mph 1015.7mb 57f 57f
12:00pm 4ft 5s 22 27 mph 1015.6mb 57f 58f
11:00am 3.5ft 5s 22 27 mph 1015.2mb 57f 58f
10:00am 3.5ft 5s 18 22 mph 1015.3mb 57f 58f
9:00am 3ft 5s 18 20 mph 1015.3mb 57f 58f
8:00am 3ft 5s 16 20 mph 1015mb 56f 58f
7:00am 3ft 5s 18 20 mph 1014.5mb 57f 57f
6:00am 3ft 6s 13 16 mph 1014.4mb 57f 57f
5:00am 3.5ft 5s 13 16 mph 1014.3mb 57f 57f
4:00am 3.5ft 5s 16 18 mph 1014mb 57f 57f
3:00am 4ft 5s 18 20 mph 1014.1mb 57f 57f
2:00am 4.5ft 5s 18 22 mph 1014.3mb 57f 57f
1:00am 4.5ft 5s 20 25 mph 1014.4mb 57f 58f
12:00am 4ft 4s 20 25 mph 1014.5mb 56f 58f
Sun 08/20 11:00pm 3.5ft 4s 20 25 mph 1014.7mb 57f 57f
10:00pm 3.5ft 4s 20 27 mph 1015.3mb 57f 57f
9:00pm 3.5ft 4s 20 25 mph 1015.3mb 57f 57f
8:00pm 2.5ft 4s 20 25 mph 1015.6mb 57f 58f
7:00pm 2.5ft 5s 18 22 mph 1015.5mb 57f 58f
6:00pm 2.5ft 5s 11 13 mph 1016.1mb 57f 57f
5:00pm 2.5ft 5s 13 16 mph 1015.9mb 57f 58f
4:00pm 2.5ft 6s 13 16 mph 1015.9mb 57f 58f
3:00pm 2.5ft 6s 13 16 mph 1015.7mb 57f 57f
2:00pm 2.5ft 6s 11 13 mph 1015.6mb 57f 57f
1:00pm 3ft 5s 13 18 mph 1015mb 57f 57f
12:00pm 3.5ft 6s 13 18 mph 1014.9mb 57f 57f
11:00am 3.5ft 5s 16 18 mph 1014.5mb 57f 57f